createdAt,value
2022-10-14T00:01:24.100Z,25.35
2022-10-14T00:04:08.950Z,22.20
2022-10-14T00:06:37.104Z,22.88
2022-10-14T00:09:06.333Z,22.13
2022-10-14T00:11:34.616Z,20.27
2022-10-14T00:14:06.999Z,20.02
2022-10-14T00:16:36.200Z,20.88
2022-10-14T00:19:04.578Z,25.17
2022-10-14T00:21:32.635Z,23.90
2022-10-14T00:24:00.407Z,25.30
2022-10-14T00:26:31.012Z,24.55
2022-10-14T00:28:59.009Z,25.67
2022-10-14T00:32:04.307Z,23.45
2022-10-14T00:34:32.401Z,24.95
2022-10-14T00:37:01.010Z,22.00
2022-10-14T00:39:28.704Z,21.20
2022-10-14T00:41:58.288Z,20.58
2022-10-14T00:44:25.838Z,19.70
2022-10-14T00:46:53.451Z,20.48
2022-10-14T00:49:26.079Z,20.13
2022-10-14T00:51:56.201Z,19.88
2022-10-14T00:54:26.356Z,20.13
2022-10-14T00:56:54.581Z,19.98
2022-10-14T00:59:23.538Z,19.20
2022-10-14T01:01:51.460Z,20.10
2022-10-14T01:04:19.186Z,20.55
2022-10-14T01:06:55.102Z,17.90
2022-10-14T01:09:33.640Z,18.70
2022-10-14T01:12:27.949Z,18.52
2022-10-14T01:15:04.842Z,19.52
2022-10-14T01:17:50.792Z,18.70
2022-10-14T01:20:44.834Z,18.13
2022-10-14T01:23:34.789Z,18.15
2022-10-14T01:26:11.622Z,17.00
2022-10-14T01:28:45.710Z,17.98
2022-10-14T01:31:24.378Z,17.83
2022-10-14T01:33:53.839Z,17.58
2022-10-14T01:36:27.776Z,16.05
2022-10-14T01:39:04.571Z,17.27
2022-10-14T01:41:37.431Z,17.55
2022-10-14T01:44:09.677Z,16.55
2022-10-14T01:46:42.135Z,16.48
2022-10-14T01:49:15.352Z,16.88
2022-10-14T01:51:47.498Z,12.93
2022-10-14T01:54:17.046Z,16.58
2022-10-14T01:56:46.904Z,14.18
2022-10-14T01:59:15.771Z,15.55
2022-10-14T02:01:44.652Z,14.90
2022-10-14T02:04:21.271Z,12.48
2022-10-14T02:06:53.668Z,15.50
2022-10-14T02:09:26.091Z,15.27
2022-10-14T02:12:03.074Z,15.18
2022-10-14T02:14:53.776Z,14.85
2022-10-14T02:17:44.404Z,15.40
2022-10-14T02:20:21.750Z,14.88
2022-10-14T02:23:03.530Z,16.23
2022-10-14T02:25:36.635Z,13.23
2022-10-14T02:28:05.148Z,15.30
2022-10-14T02:30:35.886Z,13.65
2022-10-14T02:33:04.220Z,14.73
2022-10-14T02:35:33.121Z,14.43
2022-10-14T02:38:06.435Z,14.68
2022-10-14T02:40:37.270Z,15.13
2022-10-14T02:43:07.972Z,14.85
2022-10-14T02:45:35.829Z,14.40
2022-10-14T02:48:03.567Z,15.55
2022-10-14T02:50:31.235Z,14.23
2022-10-14T02:52:59.575Z,14.30
2022-10-14T02:55:27.139Z,14.88
2022-10-14T02:57:54.724Z,13.98
2022-10-14T03:00:22.542Z,14.75
2022-10-14T03:02:50.352Z,14.02
2022-10-14T03:05:19.588Z,15.80
2022-10-14T03:07:47.581Z,15.35
2022-10-14T03:10:18.703Z,16.27
2022-10-14T03:12:48.633Z,15.02
2022-10-14T03:15:25.769Z,14.77
2022-10-14T03:17:54.227Z,15.18
2022-10-14T03:20:26.466Z,15.80
2022-10-14T03:22:57.688Z,16.05
2022-10-14T03:25:25.359Z,16.25
2022-10-14T03:28:00.727Z,14.77
2022-10-14T03:30:40.113Z,16.20
2022-10-14T03:33:15.070Z,14.57
2022-10-14T03:35:52.924Z,14.75
2022-10-14T03:38:28.153Z,15.18
2022-10-14T03:40:59.113Z,13.98
2022-10-14T03:43:28.502Z,13.30
2022-10-14T03:45:58.932Z,14.35
2022-10-14T03:48:28.513Z,14.75
2022-10-14T03:50:58.338Z,14.10
2022-10-14T03:53:28.780Z,15.15
2022-10-14T03:55:56.650Z,13.75
2022-10-14T03:58:25.616Z,14.88
2022-10-14T04:00:59.730Z,15.65
2022-10-14T04:03:52.012Z,14.13
2022-10-14T04:06:19.962Z,14.70
2022-10-14T04:08:47.732Z,14.80
2022-10-14T04:11:24.016Z,15.13
2022-10-14T04:13:58.392Z,16.17
2022-10-14T04:16:27.699Z,19.70
2022-10-14T04:19:00.838Z,16.95
2022-10-14T04:21:28.876Z,14.95
2022-10-14T04:23:58.253Z,20.92
2022-10-14T04:26:40.956Z,13.82
2022-10-14T04:29:15.011Z,17.25
2022-10-14T04:31:52.904Z,14.00
2022-10-14T04:34:20.876Z,15.27
2022-10-14T04:36:48.729Z,13.52
2022-10-14T04:39:26.528Z,14.80
2022-10-14T04:41:54.179Z,14.40
2022-10-14T04:44:23.425Z,13.90
2022-10-14T04:46:54.821Z,13.73
2022-10-14T04:49:25.416Z,14.48
2022-10-14T04:52:07.894Z,14.75
2022-10-14T04:54:48.716Z,14.27
2022-10-14T04:57:16.697Z,13.93
2022-10-14T04:59:48.188Z,13.63
2022-10-14T05:02:34.983Z,16.40
2022-10-14T05:05:03.405Z,14.38
2022-10-14T05:07:35.635Z,18.20
2022-10-14T05:10:20.320Z,13.50
2022-10-14T05:12:49.074Z,14.70
2022-10-14T05:15:16.901Z,20.63
2022-10-14T05:17:55.511Z,14.80
2022-10-14T05:20:29.290Z,15.32
2022-10-14T05:22:59.130Z,14.60
2022-10-14T05:25:27.132Z,15.60
2022-10-14T05:27:56.053Z,14.60
2022-10-14T05:30:24.581Z,14.70
2022-10-14T05:32:53.420Z,13.80
2022-10-14T05:35:39.823Z,13.70
2022-10-14T05:38:10.020Z,14.68
2022-10-14T05:40:40.879Z,14.65
2022-10-14T05:43:08.803Z,15.38
2022-10-14T05:48:09.560Z,15.05
2022-10-14T05:50:37.547Z,14.35
2022-10-14T05:53:11.486Z,13.65
2022-10-14T05:55:43.676Z,14.70
2022-10-14T05:58:11.824Z,14.75
2022-10-14T06:00:41.933Z,14.93
2022-10-14T06:03:14.655Z,14.18
2022-10-14T06:05:42.365Z,14.10
2022-10-14T06:08:09.894Z,14.30
2022-10-14T06:10:39.484Z,13.57
2022-10-14T06:13:07.211Z,13.88
2022-10-14T06:15:37.951Z,14.83
2022-10-14T06:18:06.316Z,15.35
2022-10-14T06:20:33.982Z,14.25
2022-10-14T06:23:02.394Z,14.18
2022-10-14T06:25:30.429Z,14.10
2022-10-14T06:28:05.158Z,14.48
2022-10-14T06:30:33.528Z,14.80
2022-10-14T06:33:01.050Z,14.52
2022-10-14T06:35:28.721Z,14.32
2022-10-14T06:37:57.283Z,14.50
2022-10-14T06:40:24.913Z,15.00
2022-10-14T06:42:53.606Z,14.60
2022-10-14T06:45:21.480Z,15.65
2022-10-14T06:47:49.065Z,14.02
2022-10-14T06:50:16.677Z,13.45
2022-10-14T06:52:47.739Z,13.85
2022-10-14T06:55:15.555Z,13.07
2022-10-14T06:58:02.416Z,12.93
2022-10-14T07:00:30.011Z,13.25
2022-10-14T07:02:59.814Z,12.90
2022-10-14T07:05:27.968Z,12.75
2022-10-14T07:07:57.652Z,13.88
2022-10-14T07:10:25.319Z,13.90
2022-10-14T07:12:55.614Z,12.75
2022-10-14T07:15:23.577Z,12.07
2022-10-14T07:17:51.554Z,11.90
2022-10-14T07:20:19.444Z,12.82
2022-10-14T07:22:47.103Z,13.10
2022-10-14T07:25:14.716Z,14.32
2022-10-14T07:27:42.523Z,14.98
2022-10-14T07:30:12.607Z,13.88
2022-10-14T07:32:42.954Z,14.20
2022-10-14T07:35:11.897Z,14.73
2022-10-14T07:37:39.493Z,13.60
2022-10-14T07:40:07.448Z,14.57
2022-10-14T07:42:35.337Z,13.85
2022-10-14T07:45:03.014Z,13.70
2022-10-14T07:47:32.858Z,13.45
2022-10-14T07:50:01.953Z,15.02
2022-10-14T07:52:30.007Z,15.10
2022-10-14T07:54:57.913Z,14.57
2022-10-14T07:57:25.916Z,14.57
2022-10-14T07:59:53.849Z,15.05
2022-10-14T08:02:22.133Z,13.60
2022-10-14T08:04:53.046Z,14.88
2022-10-14T08:07:21.140Z,14.32
2022-10-14T08:09:49.179Z,14.20
2022-10-14T08:12:17.061Z,14.35
2022-10-14T08:14:44.834Z,14.80
2022-10-14T08:17:12.533Z,18.67
2022-10-14T08:19:40.221Z,15.25
2022-10-14T08:22:08.037Z,14.25
2022-10-14T08:24:35.607Z,13.95
2022-10-14T08:27:05.576Z,13.65
2022-10-14T08:29:33.627Z,14.70
2022-10-14T08:32:01.712Z,15.30
2022-10-14T08:34:29.296Z,13.77
2022-10-14T08:36:57.101Z,14.18
2022-10-14T08:39:24.795Z,14.23
2022-10-14T08:42:01.594Z,13.38
2022-10-14T08:44:38.028Z,13.38
2022-10-14T08:47:11.121Z,13.43
2022-10-14T08:49:47.562Z,13.35
2022-10-14T08:52:25.503Z,13.90
2022-10-14T08:54:59.467Z,14.57
2022-10-14T08:57:28.154Z,11.98
2022-10-14T08:59:55.732Z,13.55
2022-10-14T09:02:43.327Z,13.35
2022-10-14T09:05:15.045Z,14.45
2022-10-14T09:07:43.339Z,11.98
2022-10-14T09:10:13.482Z,13.35
2022-10-14T09:12:42.970Z,13.82
2022-10-14T09:15:16.867Z,13.43
2022-10-14T09:17:50.976Z,12.85
2022-10-14T09:20:23.860Z,15.00
2022-10-14T09:23:10.414Z,13.35
2022-10-14T09:25:40.375Z,13.93
2022-10-14T09:28:09.094Z,13.10
2022-10-14T09:30:40.545Z,14.00
2022-10-14T09:35:37.702Z,13.98
2022-10-14T09:38:05.901Z,13.70
2022-10-14T09:40:36.089Z,13.98
2022-10-14T09:43:12.955Z,14.50
2022-10-14T09:45:53.029Z,14.13
2022-10-14T09:48:37.784Z,13.88
2022-10-14T09:51:08.383Z,15.27
2022-10-14T09:53:42.257Z,15.20
2022-10-14T09:56:10.803Z,13.25
2022-10-14T09:58:53.663Z,13.32
2022-10-14T10:01:23.727Z,13.85
2022-10-14T10:03:53.192Z,15.00
2022-10-14T10:06:25.878Z,14.85
2022-10-14T10:08:53.812Z,14.52
2022-10-14T10:11:48.010Z,12.82
2022-10-14T10:14:23.445Z,13.32
2022-10-14T10:16:52.094Z,13.52
2022-10-14T10:19:27.052Z,13.35
2022-10-14T10:21:55.126Z,14.50
2022-10-14T10:24:26.153Z,14.13
2022-10-14T10:26:56.603Z,14.57
2022-10-14T10:29:25.733Z,14.63
2022-10-14T10:32:09.936Z,13.32
2022-10-14T10:34:51.178Z,14.93
2022-10-14T10:37:25.245Z,15.18
2022-10-14T10:39:56.253Z,13.50
2022-10-14T10:42:29.927Z,14.00
2022-10-14T10:45:06.941Z,13.25
2022-10-14T10:47:41.600Z,14.13
2022-10-14T10:50:19.258Z,12.77
2022-10-14T10:52:53.421Z,12.30
2022-10-14T10:55:24.782Z,12.90
2022-10-14T10:58:06.141Z,12.75
2022-10-14T11:00:45.119Z,12.38
2022-10-14T11:03:28.054Z,11.85
2022-10-14T11:06:14.439Z,11.82
2022-10-14T11:09:09.179Z,11.95
2022-10-14T11:12:10.315Z,12.60
2022-10-14T11:15:03.072Z,11.63
2022-10-14T11:17:36.652Z,10.73
2022-10-14T11:20:17.609Z,9.32
2022-10-14T11:22:48.216Z,11.30
2022-10-14T11:25:34.699Z,11.05
2022-10-14T11:28:05.571Z,9.55
2022-10-14T11:30:45.855Z,10.15
2022-10-14T11:33:19.965Z,9.82
2022-10-14T11:35:50.934Z,10.23
2022-10-14T11:38:21.919Z,11.32
2022-10-14T11:40:57.960Z,11.68
2022-10-14T11:43:48.058Z,11.27
2022-10-14T11:46:22.918Z,11.80
2022-10-14T11:48:56.195Z,10.70
2022-10-14T11:51:23.782Z,11.38
2022-10-14T11:54:06.530Z,11.18
2022-10-14T11:56:37.282Z,11.52
2022-10-14T11:59:19.465Z,11.55
2022-10-14T12:01:48.963Z,10.43
2022-10-14T12:04:20.551Z,11.25
2022-10-14T12:06:51.659Z,12.00
2022-10-14T12:09:41.512Z,9.93
2022-10-14T12:12:12.420Z,11.63
2022-10-14T12:14:44.764Z,11.75
2022-10-14T12:17:18.396Z,11.52
2022-10-14T12:19:46.695Z,12.77
2022-10-14T12:22:20.201Z,11.93
2022-10-14T12:24:53.636Z,11.80
2022-10-14T12:27:22.743Z,12.88
2022-10-14T12:29:51.397Z,12.02
2022-10-14T12:32:22.456Z,13.00
2022-10-14T12:34:56.205Z,12.73
2022-10-14T12:37:35.160Z,13.10
2022-10-14T12:40:06.884Z,12.82
2022-10-14T12:42:59.326Z,12.52
2022-10-14T12:45:28.725Z,13.63
2022-10-14T12:48:08.409Z,11.80
2022-10-14T12:50:39.547Z,12.63
2022-10-14T12:53:17.722Z,12.82
2022-10-14T12:55:49.982Z,12.98
2022-10-14T12:58:24.624Z,12.70
2022-10-14T13:00:57.377Z,12.75
2022-10-14T13:03:27.440Z,12.80
2022-10-14T13:06:15.026Z,13.15
2022-10-14T13:08:42.965Z,12.65
2022-10-14T13:11:12.345Z,12.48
2022-10-14T13:13:47.901Z,12.73
2022-10-14T13:16:21.619Z,13.15
2022-10-14T13:18:50.922Z,12.55
2022-10-14T13:21:37.089Z,13.25
2022-10-14T13:24:08.022Z,13.90
2022-10-14T13:26:37.711Z,14.18
2022-10-14T13:29:23.926Z,13.88
2022-10-14T13:32:05.999Z,15.60
2022-10-14T13:34:52.288Z,14.75
2022-10-14T13:37:45.904Z,14.82
2022-10-14T13:40:20.373Z,13.38
2022-10-14T13:42:51.218Z,14.93
2022-10-14T13:45:20.731Z,14.32
2022-10-14T13:47:50.220Z,13.23
2022-10-14T13:50:26.537Z,14.55
2022-10-14T13:52:59.039Z,15.00
2022-10-14T13:55:27.571Z,14.13
2022-10-14T13:58:18.569Z,14.90
2022-10-14T14:00:59.166Z,14.30
2022-10-14T14:03:31.137Z,14.10
2022-10-14T14:08:40.300Z,14.45
2022-10-14T14:11:18.471Z,12.85
2022-10-14T14:13:57.509Z,13.55
2022-10-14T14:16:50.659Z,13.70
2022-10-14T14:19:19.921Z,13.57
2022-10-14T14:21:47.880Z,13.18
2022-10-14T14:24:17.043Z,13.95
2022-10-14T14:26:55.977Z,14.88
2022-10-14T14:29:28.226Z,13.27
2022-10-14T14:32:12.325Z,14.70
2022-10-14T14:34:43.107Z,13.52
2022-10-14T14:40:22.376Z,14.13
2022-10-14T14:42:52.234Z,13.63
2022-10-14T14:45:22.643Z,13.57
2022-10-14T14:47:51.907Z,14.07
2022-10-14T14:50:30.324Z,14.02
2022-10-14T14:53:02.147Z,13.02
2022-10-14T14:55:36.021Z,11.70
2022-10-14T14:58:04.714Z,13.75
2022-10-14T15:00:32.587Z,13.50
2022-10-14T15:03:01.012Z,12.07
2022-10-14T15:05:29.886Z,13.15
2022-10-14T15:07:57.833Z,12.93
2022-10-14T15:10:28.408Z,12.20
2022-10-14T15:12:57.630Z,12.43
2022-10-14T15:15:32.780Z,12.98
2022-10-14T15:18:24.560Z,12.75
2022-10-14T15:20:52.615Z,13.43
2022-10-14T15:23:38.988Z,13.55
2022-10-14T15:26:21.818Z,13.45
2022-10-14T15:32:02.563Z,15.07
2022-10-14T15:34:30.571Z,13.52
2022-10-14T15:36:58.260Z,12.55
2022-10-14T15:39:25.982Z,14.70
2022-10-14T15:41:53.634Z,13.77
2022-10-14T15:44:21.416Z,14.18
2022-10-14T15:47:21.168Z,13.15
2022-10-14T15:49:49.213Z,14.27
2022-10-14T15:52:19.327Z,13.30
2022-10-14T15:54:50.678Z,12.93
2022-10-14T15:57:18.383Z,12.63
2022-10-14T15:59:49.343Z,12.52
2022-10-14T16:02:22.751Z,14.20
2022-10-14T16:05:15.031Z,14.38
2022-10-14T16:07:40.027Z,14.60
2022-10-14T16:10:08.911Z,14.00
2022-10-14T16:12:36.628Z,12.23
2022-10-14T16:17:33.126Z,12.65
2022-10-14T16:20:00.796Z,13.88
2022-10-14T16:22:28.774Z,15.65
2022-10-14T16:24:56.842Z,17.58
2022-10-14T16:27:24.928Z,16.00
2022-10-14T16:29:52.719Z,22.63
2022-10-14T16:32:20.295Z,21.00
2022-10-14T16:34:48.023Z,21.30
2022-10-14T16:37:16.782Z,21.17
2022-10-14T16:39:44.406Z,19.63
2022-10-14T16:42:12.956Z,16.92
2022-10-14T16:44:40.861Z,17.45
2022-10-14T16:47:16.274Z,17.10
2022-10-14T16:49:45.448Z,16.70
2022-10-14T16:52:13.504Z,19.15
2022-10-14T16:54:41.127Z,19.17
2022-10-14T16:57:09.138Z,20.80
2022-10-14T16:59:37.170Z,22.00
2022-10-14T17:02:05.406Z,20.05
2022-10-14T17:04:33.517Z,17.80
2022-10-14T17:07:07.268Z,18.15
2022-10-14T17:09:36.081Z,16.77
2022-10-14T17:12:08.052Z,14.73
2022-10-14T17:14:38.776Z,16.30
2022-10-14T17:17:06.514Z,13.90
2022-10-14T17:19:34.076Z,15.00
2022-10-14T17:22:02.078Z,14.63
2022-10-14T17:24:30.476Z,13.85
2022-10-14T17:26:58.592Z,14.23
2022-10-14T17:29:26.454Z,14.43
2022-10-14T17:34:41.541Z,15.32
2022-10-14T17:39:37.548Z,15.05
2022-10-14T17:42:05.167Z,14.43
2022-10-14T17:44:33.269Z,13.27
2022-10-14T17:47:02.030Z,15.07
2022-10-14T17:49:31.188Z,14.73
2022-10-14T17:52:02.570Z,15.15
2022-10-14T17:54:30.551Z,15.07
2022-10-14T17:57:17.002Z,15.13
2022-10-14T17:59:44.747Z,14.77
2022-10-14T18:02:17.894Z,15.00
2022-10-14T18:04:45.867Z,14.88
2022-10-14T18:07:13.493Z,15.13
2022-10-14T18:09:41.131Z,15.13
2022-10-14T18:12:10.091Z,15.15
2022-10-14T18:14:38.820Z,15.02
2022-10-14T18:17:06.749Z,15.57
2022-10-14T18:19:35.106Z,15.25
2022-10-14T18:22:03.811Z,15.98
2022-10-14T18:24:32.352Z,18.45
2022-10-14T18:27:00.322Z,16.25
2022-10-14T18:29:27.884Z,16.00
2022-10-14T18:31:55.705Z,16.73
2022-10-14T18:34:25.375Z,17.90
2022-10-14T18:36:54.444Z,15.13
2022-10-14T18:39:22.447Z,16.23
2022-10-14T18:41:50.108Z,16.10
2022-10-14T18:44:17.893Z,16.60
2022-10-14T18:46:47.555Z,15.43
2022-10-14T18:49:15.320Z,16.80
2022-10-14T18:51:43.465Z,16.42
2022-10-14T18:54:15.370Z,15.32
2022-10-14T18:56:44.422Z,15.00
2022-10-14T18:59:13.668Z,15.82
2022-10-14T19:01:41.980Z,15.50
2022-10-14T19:04:12.969Z,15.88
2022-10-14T19:06:41.123Z,14.70
2022-10-14T19:09:12.547Z,14.73
2022-10-14T19:11:41.135Z,14.30
2022-10-14T19:14:10.614Z,13.25
2022-10-14T19:16:38.980Z,14.25
2022-10-14T19:19:18.416Z,11.70
2022-10-14T19:21:47.130Z,12.00
2022-10-14T19:24:14.935Z,11.52
2022-10-14T19:26:44.879Z,11.65
2022-10-14T19:29:15.147Z,11.90
2022-10-14T19:31:46.618Z,11.32
2022-10-14T19:34:15.928Z,12.80
2022-10-14T19:36:43.908Z,13.43
2022-10-14T19:39:13.497Z,13.07
2022-10-14T19:41:45.086Z,12.70
2022-10-14T19:44:13.853Z,12.95
2022-10-14T19:46:41.702Z,13.52
2022-10-14T19:49:11.311Z,13.30
2022-10-14T19:51:38.918Z,13.90
2022-10-14T19:54:06.765Z,13.63
2022-10-14T19:56:34.279Z,13.73
2022-10-14T19:59:01.953Z,14.95
2022-10-14T20:01:30.694Z,14.85
2022-10-14T20:04:00.211Z,14.82
2022-10-14T20:06:29.257Z,16.35
2022-10-14T20:08:57.097Z,16.10
2022-10-14T20:11:26.501Z,17.25
2022-10-14T20:18:17.523Z,18.90
2022-10-14T20:20:45.416Z,19.40
2022-10-14T20:23:14.382Z,17.88
2022-10-14T20:25:41.915Z,19.33
2022-10-14T20:28:09.743Z,19.60
2022-10-14T20:30:39.582Z,18.42
2022-10-14T20:33:07.219Z,18.88
2022-10-14T20:35:35.246Z,19.48
2022-10-14T20:38:03.222Z,19.40
2022-10-14T20:40:30.928Z,19.98
2022-10-14T20:42:58.713Z,20.25
2022-10-14T20:45:26.278Z,18.92
2022-10-14T20:47:53.995Z,20.23
2022-10-14T20:50:22.440Z,20.38
2022-10-14T20:52:50.177Z,19.75
2022-10-14T20:55:17.764Z,21.42
2022-10-14T20:57:46.256Z,20.15
2022-10-14T21:00:14.199Z,20.23
2022-10-14T21:02:44.725Z,22.00
2022-10-14T21:05:12.497Z,22.60
2022-10-14T21:07:40.080Z,20.15
2022-10-14T21:10:07.884Z,21.05
2022-10-14T21:12:35.811Z,21.52
2022-10-14T21:15:03.426Z,21.50
2022-10-14T21:17:31.594Z,21.70
2022-10-14T21:19:59.436Z,21.00
2022-10-14T21:22:26.961Z,21.15
2022-10-14T21:24:54.519Z,21.52
2022-10-14T21:27:22.629Z,21.60
2022-10-14T21:29:51.222Z,22.60
2022-10-14T21:32:18.769Z,23.25
2022-10-14T21:34:46.545Z,21.33
2022-10-14T21:37:17.513Z,23.17
2022-10-14T21:39:45.141Z,23.70
2022-10-14T21:42:14.337Z,22.90
2022-10-14T21:44:41.915Z,23.30
2022-10-14T21:47:09.571Z,21.88
2022-10-14T21:49:37.298Z,22.48
2022-10-14T21:52:06.308Z,21.63
2022-10-14T21:54:34.861Z,23.02
2022-10-14T21:57:02.663Z,22.88
2022-10-14T21:59:30.394Z,22.13
2022-10-14T22:01:59.076Z,24.13
2022-10-14T22:04:27.084Z,23.52
2022-10-14T22:06:54.697Z,22.45
2022-10-14T22:09:22.426Z,22.77
2022-10-14T22:11:50.228Z,21.75
2022-10-14T22:14:17.774Z,22.83
2022-10-14T22:16:46.291Z,21.10
2022-10-14T22:19:14.715Z,23.13
2022-10-14T22:21:43.137Z,20.50
2022-10-14T22:24:11.852Z,20.60
2022-10-14T22:26:40.505Z,20.90
2022-10-14T22:29:08.123Z,21.88
2022-10-14T22:31:36.017Z,21.30
2022-10-14T22:34:04.848Z,20.27
2022-10-14T22:36:33.667Z,18.92
2022-10-14T22:39:01.942Z,20.88
2022-10-14T22:41:34.803Z,19.70
2022-10-14T22:44:03.768Z,19.88
2022-10-14T22:46:32.851Z,18.98
2022-10-14T22:49:01.820Z,20.10
2022-10-14T22:51:34.637Z,21.60
2022-10-14T22:54:02.673Z,20.35
2022-10-14T22:56:31.332Z,20.83
2022-10-14T22:59:00.626Z,21.08
2022-10-14T23:01:29.033Z,20.08
2022-10-14T23:03:57.735Z,21.35
2022-10-14T23:06:25.854Z,20.92
2022-10-14T23:08:54.412Z,21.48
2022-10-14T23:11:22.833Z,21.38
2022-10-14T23:13:50.592Z,21.48
2022-10-14T23:16:20.017Z,23.63
2022-10-14T23:18:47.952Z,23.48
2022-10-14T23:21:16.907Z,20.88
2022-10-14T23:23:45.261Z,19.80
2022-10-14T23:26:14.093Z,21.58
2022-10-14T23:28:42.156Z,22.70
2022-10-14T23:31:10.990Z,16.70
2022-10-14T23:33:38.895Z,21.35
2022-10-14T23:36:07.191Z,22.10
2022-10-14T23:38:35.197Z,20.05
2022-10-14T23:41:03.149Z,21.17
2022-10-14T23:43:30.767Z,20.48
2022-10-14T23:45:58.820Z,21.00
2022-10-14T23:48:26.512Z,20.70
2022-10-14T23:50:54.298Z,20.67
2022-10-14T23:53:22.499Z,19.42
2022-10-14T23:55:50.273Z,19.17
2022-10-14T23:58:17.814Z,19.23
